Rhl Felicitas — A8SV2 — position and weather

sailwx.info

Track history (hours):
 
Tides and Currents Weather Stations Pressure Air Temp Water Temp Dewpoint Dewpoint Depression Visibility Wind Speed Wind Dir Waves Ship Positions

Rhl Felicitas

Last reported at 2015-Mar-24 23:33 UTC. Time now 2015-Apr-01 14:22 UTC.
Position N 01°52' E 102°27'.

Length 294 m; draft 12.1 m.

Type: Ship (hazmat cat D). MMSI: 636091781.

Date/timePositionNaut miles runAvg speedWind from/ knotsBaromVisibWave heightAir tempDewpointWater temp
2015-Mar-24 23:33N 01°52' E 102°27'1212.0
2015-Mar-24 22:33N 01°47' E 102°38'1412.2
2015-Mar-24 21:26N 01°42' E 102°51'5811.4
2015-Mar-24 16:21N 01°13' E 103°41'7 8.2
2015-Mar-24 15:33N 01°17' E 103°45'0 0.1
2015-Mar-24 14:26N 01°17' E 103°46'0 0.0
2015-Mar-24 13:32N 01°17' E 103°46'0 0.0
2015-Mar-24 12:32N 01°17' E 103°46'0 0.0
2015-Mar-24 11:20N 01°17' E 103°46'0 0.0
2015-Mar-24 10:32N 01°17' E 103°46'0 0.0
2015-Mar-24 09:32N 01°17' E 103°46'0 0.0
2015-Mar-24 08:05N 01°17' E 103°46'0 0.0
2015-Mar-24 07:32N 01°17' E 103°46'0 0.0
2015-Mar-24 06:32N 01°17' E 103°46'0 0.0
2015-Mar-24 05:29N 01°17' E 103°46'0 0.0
2015-Mar-24 04:29N 01°17' E 103°46'0 0.0
2015-Mar-24 02:20N 01°17' E 103°46'0 0.0
2015-Mar-24 01:20N 01°17' E 103°46'8 4.2
2015-Mar-23 23:30N 01°12' E 103°52'6 6.7
2015-Mar-23 22:33N 01°15' E 103°57'1313.3
2015-Mar-23 21:33N 01°16' E 104°11'  
2015-Mar-18 06:07N 01°17' E 104°20'1118.7
2015-Mar-18 05:32N 01°15' E 104°10'1918.4
2015-Mar-18 04:29N 01°11' E 103°51'7 7.7
2015-Mar-18 03:33N 01°16' E 103°46'0 0.0
2015-Mar-18 02:27N 01°16' E 103°46'0 0.0
2015-Mar-17 12:33N 01°16' E 103°46'4 3.6
2015-Mar-17 11:33N 01°14' E 103°43'78 9.7
2015-Mar-17 03:31N 01°45' E 102°31'1413.0
2015-Mar-17 02:27N 01°51' E 102°19'  
Track history (hours):
 
Tides and Currents Weather Stations Pressure Air Temp Water Temp Dewpoint Dewpoint Depression Visibility Wind Speed Wind Dir Waves Ship Positions

Rhl Felicitas

Last reported at 2015-Mar-24 23:33 UTC. Time now 2015-Apr-01 14:22 UTC.
Position N 01°52' E 102°27'.

Length 294 m; draft 12.1 m.

Type: Ship (hazmat cat D). MMSI: 636091781.

Date/timePositionNaut miles runAvg speedWind from/ knotsBaromVisibWave heightAir tempDewpointWater temp
2015-Mar-24 23:33N 01°52' E 102°27'1212.0
2015-Mar-24 22:33N 01°47' E 102°38'1412.2
2015-Mar-24 21:26N 01°42' E 102°51'5811.4
2015-Mar-24 16:21N 01°13' E 103°41'7 8.2
2015-Mar-24 15:33N 01°17' E 103°45'0 0.1
2015-Mar-24 14:26N 01°17' E 103°46'0 0.0
2015-Mar-24 13:32N 01°17' E 103°46'0 0.0
2015-Mar-24 12:32N 01°17' E 103°46'0 0.0
2015-Mar-24 11:20N 01°17' E 103°46'0 0.0
2015-Mar-24 10:32N 01°17' E 103°46'0 0.0
2015-Mar-24 09:32N 01°17' E 103°46'0 0.0
2015-Mar-24 08:05N 01°17' E 103°46'0 0.0
2015-Mar-24 07:32N 01°17' E 103°46'0 0.0
2015-Mar-24 06:32N 01°17' E 103°46'0 0.0
2015-Mar-24 05:29N 01°17' E 103°46'0 0.0
2015-Mar-24 04:29N 01°17' E 103°46'0 0.0
2015-Mar-24 02:20N 01°17' E 103°46'0 0.0
2015-Mar-24 01:20N 01°17' E 103°46'8 4.2
2015-Mar-23 23:30N 01°12' E 103°52'6 6.7
2015-Mar-23 22:33N 01°15' E 103°57'1313.3
2015-Mar-23 21:33N 01°16' E 104°11'  
2015-Mar-18 06:07N 01°17' E 104°20'1118.7
2015-Mar-18 05:32N 01°15' E 104°10'1918.4
2015-Mar-18 04:29N 01°11' E 103°51'7 7.7
2015-Mar-18 03:33N 01°16' E 103°46'0 0.0
2015-Mar-18 02:27N 01°16' E 103°46'0 0.0
2015-Mar-17 12:33N 01°16' E 103°46'4 3.6
2015-Mar-17 11:33N 01°14' E 103°43'78 9.7
2015-Mar-17 03:31N 01°45' E 102°31'1413.0
2015-Mar-17 02:27N 01°51' E 102°19'  

Dump ship's entire track history